createdAt,value
2022-11-20T00:00:23.413Z,62.12
2022-11-20T00:02:50.044Z,64.15
2022-11-20T00:05:17.448Z,62.47
2022-11-20T00:07:44.810Z,63.35
2022-11-20T00:10:11.560Z,64.61
2022-11-20T00:12:38.362Z,62.49
2022-11-20T00:15:05.592Z,62.58
2022-11-20T00:17:32.228Z,62.12
2022-11-20T00:19:58.924Z,62.67
2022-11-20T00:22:25.659Z,62.95
2022-11-20T00:24:52.339Z,61.54
2022-11-20T00:27:19.824Z,62.25
2022-11-20T00:29:46.514Z,61.44
2022-11-20T00:32:13.202Z,61.99
2022-11-20T00:34:39.986Z,62.10
2022-11-20T00:37:06.577Z,63.14
2022-11-20T00:39:33.810Z,62.47
2022-11-20T00:42:00.945Z,60.99
2022-11-20T00:44:27.650Z,60.99
2022-11-20T00:46:54.658Z,61.05
2022-11-20T00:49:21.445Z,62.07
2022-11-20T00:51:48.179Z,60.87
2022-11-20T00:54:14.788Z,62.19
2022-11-20T00:56:41.611Z,61.39
2022-11-20T00:59:10.263Z,61.43
2022-11-20T01:01:37.541Z,61.63
2022-11-20T01:04:04.276Z,61.16
2022-11-20T01:06:33.559Z,61.25
2022-11-20T01:09:06.075Z,62.50
2022-11-20T01:11:36.343Z,62.29
2022-11-20T01:14:04.680Z,61.72
2022-11-20T01:16:34.520Z,61.45
2022-11-20T01:19:03.488Z,61.06
2022-11-20T01:21:36.483Z,61.58
2022-11-20T01:24:03.740Z,60.38
2022-11-20T01:26:32.827Z,60.89
2022-11-20T01:29:01.067Z,61.90
2022-11-20T01:31:29.234Z,62.04
2022-11-20T01:34:03.702Z,62.35
2022-11-20T01:36:32.317Z,60.98
2022-11-20T01:39:01.997Z,60.92
2022-11-20T01:41:49.720Z,61.82
2022-11-20T01:44:21.329Z,60.77
2022-11-20T01:46:58.073Z,62.72
2022-11-20T01:49:30.296Z,61.80
2022-11-20T01:52:05.847Z,61.55
2022-11-20T01:54:40.737Z,61.90
2022-11-20T01:57:11.231Z,62.25
2022-11-20T01:59:43.443Z,61.51
2022-11-20T02:02:10.355Z,61.13
2022-11-20T02:04:39.911Z,61.78
2022-11-20T02:07:06.681Z,61.01
2022-11-20T02:09:33.280Z,61.30
2022-11-20T02:12:00.426Z,60.93
2022-11-20T02:14:27.525Z,61.70
2022-11-20T02:16:56.043Z,60.40
2022-11-20T02:19:30.044Z,60.46
2022-11-20T02:21:56.765Z,62.24
2022-11-20T02:24:24.232Z,61.34
2022-11-20T02:26:55.496Z,61.08
2022-11-20T02:29:30.864Z,60.79
2022-11-20T02:31:59.936Z,60.94
2022-11-20T02:34:26.528Z,61.61
2022-11-20T02:36:54.226Z,61.38
2022-11-20T02:39:23.048Z,61.06
2022-11-20T02:41:49.950Z,61.39
2022-11-20T02:44:16.854Z,60.76
2022-11-20T02:46:43.368Z,59.86
2022-11-20T02:49:10.015Z,60.05
2022-11-20T02:51:36.719Z,60.75
2022-11-20T02:54:04.035Z,61.12
2022-11-20T02:56:32.634Z,61.46
2022-11-20T02:59:00.584Z,61.50
2022-11-20T03:01:27.954Z,60.40
2022-11-20T03:03:55.825Z,60.91
2022-11-20T03:06:22.695Z,60.37
2022-11-20T03:08:49.441Z,60.98
2022-11-20T03:11:16.294Z,61.21
2022-11-20T03:13:43.266Z,60.58
2022-11-20T03:16:21.729Z,60.17
2022-11-20T03:18:48.863Z,59.92
2022-11-20T03:21:18.300Z,59.68
2022-11-20T03:23:45.057Z,62.30
2022-11-20T03:26:17.377Z,60.73
2022-11-20T03:28:53.269Z,61.54
2022-11-20T03:31:23.087Z,61.37
2022-11-20T03:33:49.965Z,60.77
2022-11-20T03:36:18.421Z,60.96
2022-11-20T03:38:45.171Z,61.18
2022-11-20T03:41:14.599Z,61.67
2022-11-20T03:43:41.405Z,61.69
2022-11-20T03:46:08.690Z,61.63
2022-11-20T03:48:35.721Z,62.21
2022-11-20T03:51:12.716Z,61.88
2022-11-20T03:53:46.009Z,61.63
2022-11-20T03:56:17.650Z,62.02
2022-11-20T03:58:44.723Z,62.13
2022-11-20T04:01:15.874Z,61.20
2022-11-20T04:03:43.980Z,62.21
2022-11-20T04:06:13.985Z,61.41
2022-11-20T04:08:42.864Z,61.49
2022-11-20T04:11:21.506Z,61.55
2022-11-20T04:13:51.293Z,61.03
2022-11-20T04:16:18.968Z,61.32
2022-11-20T04:18:45.751Z,61.30
2022-11-20T04:21:13.570Z,60.40
2022-11-20T04:23:40.316Z,59.42
2022-11-20T04:26:11.554Z,60.29
2022-11-20T04:28:39.486Z,60.27
2022-11-20T04:31:09.123Z,60.60
2022-11-20T04:33:37.362Z,60.81
2022-11-20T04:36:11.391Z,61.14
2022-11-20T04:38:38.703Z,61.50
2022-11-20T04:41:08.450Z,62.02
2022-11-20T04:43:35.576Z,61.83
2022-11-20T04:46:02.718Z,61.87
2022-11-20T04:48:30.229Z,62.10
2022-11-20T04:50:57.849Z,62.44
2022-11-20T04:53:29.957Z,61.57
2022-11-20T04:56:05.336Z,62.30
2022-11-20T04:58:32.651Z,61.96
2022-11-20T05:01:07.916Z,62.82
2022-11-20T05:03:38.454Z,63.04
2022-11-20T05:06:09.154Z,62.76
2022-11-20T05:08:35.938Z,62.42
2022-11-20T05:11:09.081Z,62.76
2022-11-20T05:13:36.421Z,62.42
2022-11-20T05:16:05.065Z,62.09
2022-11-20T05:18:32.747Z,61.99
2022-11-20T05:20:59.425Z,61.70
2022-11-20T05:23:28.679Z,62.10
2022-11-20T05:25:59.056Z,61.85
2022-11-20T05:28:28.119Z,61.69
2022-11-20T05:30:55.018Z,61.81
2022-11-20T05:33:22.059Z,61.52
2022-11-20T05:35:49.837Z,61.85
2022-11-20T05:38:16.887Z,62.64
2022-11-20T05:40:43.733Z,63.42
2022-11-20T05:43:10.352Z,63.68
2022-11-20T05:45:37.029Z,63.42
2022-11-20T05:48:03.900Z,63.16
2022-11-20T05:50:30.552Z,62.53
2022-11-20T05:53:00.991Z,62.13
2022-11-20T05:55:29.451Z,63.55
2022-11-20T05:57:56.160Z,62.51
2022-11-20T06:00:23.408Z,63.55
2022-11-20T06:02:50.284Z,62.42
2022-11-20T06:05:16.900Z,61.56
2022-11-20T06:07:43.923Z,62.23
2022-11-20T06:10:18.205Z,61.93
2022-11-20T06:12:44.967Z,62.12
2022-11-20T06:15:11.679Z,60.39
2022-11-20T06:18:04.578Z,59.90
2022-11-20T06:20:31.307Z,60.32
2022-11-20T06:23:04.662Z,60.82
2022-11-20T06:25:31.404Z,60.78
2022-11-20T06:27:58.354Z,60.30
2022-11-20T06:30:25.113Z,60.37
2022-11-20T06:32:52.086Z,59.92
2022-11-20T06:35:18.734Z,60.79
2022-11-20T06:37:45.500Z,62.29
2022-11-20T06:40:12.845Z,62.94
2022-11-20T06:42:39.562Z,62.94
2022-11-20T06:45:07.246Z,60.97
2022-11-20T06:47:34.426Z,61.59
2022-11-20T06:50:01.662Z,63.97
2022-11-20T06:52:31.326Z,63.83
2022-11-20T06:54:58.301Z,63.97
2022-11-20T06:57:24.974Z,63.01
2022-11-20T06:59:54.854Z,61.70
2022-11-20T07:02:21.773Z,61.07
2022-11-20T07:04:48.956Z,60.97
2022-11-20T07:07:16.048Z,60.84
2022-11-20T07:09:42.725Z,60.73
2022-11-20T07:12:09.453Z,61.71
2022-11-20T07:14:36.381Z,62.24
2022-11-20T07:17:04.148Z,64.56
2022-11-20T07:19:30.910Z,64.06
2022-11-20T07:21:57.757Z,64.04
2022-11-20T07:24:24.296Z,62.02
2022-11-20T07:26:51.386Z,61.65
2022-11-20T07:29:18.522Z,62.52
2022-11-20T07:31:45.214Z,60.55
2022-11-20T07:34:11.858Z,60.26
2022-11-20T07:36:38.567Z,61.31
2022-11-20T07:39:05.311Z,60.50
2022-11-20T07:41:32.504Z,60.83
2022-11-20T07:43:59.525Z,60.46
2022-11-20T07:46:26.278Z,60.24
2022-11-20T07:48:53.381Z,60.71
2022-11-20T07:51:20.403Z,60.93
2022-11-20T07:53:54.707Z,60.66
2022-11-20T07:56:21.477Z,61.06
2022-11-20T07:58:48.256Z,60.92
2022-11-20T08:01:14.967Z,60.89
2022-11-20T08:03:41.734Z,60.29
2022-11-20T08:06:08.906Z,60.52
2022-11-20T08:08:40.020Z,59.88
2022-11-20T08:11:28.066Z,59.49
2022-11-20T08:14:13.231Z,59.55
2022-11-20T08:16:41.503Z,60.32
2022-11-20T08:19:08.792Z,59.05
2022-11-20T08:21:38.369Z,59.47
2022-11-20T08:24:06.073Z,59.01
2022-11-20T08:26:32.866Z,58.40
2022-11-20T08:29:00.033Z,58.57
2022-11-20T08:31:30.860Z,59.77
2022-11-20T08:33:58.017Z,59.55
2022-11-20T08:36:25.690Z,59.86
2022-11-20T08:38:54.820Z,59.74
2022-11-20T08:41:26.778Z,59.16
2022-11-20T08:44:08.446Z,59.66
2022-11-20T08:46:38.749Z,59.91
2022-11-20T08:49:08.854Z,59.42
2022-11-20T08:51:36.912Z,59.42
2022-11-20T08:54:04.232Z,58.92
2022-11-20T08:56:31.243Z,59.14
2022-11-20T09:01:44.980Z,59.60
2022-11-20T09:04:12.759Z,59.06
2022-11-20T09:06:39.515Z,59.06
2022-11-20T09:09:07.199Z,59.46
2022-11-20T09:11:35.400Z,59.78
2022-11-20T09:14:03.804Z,60.21
2022-11-20T09:16:30.673Z,60.17
2022-11-20T09:19:28.184Z,60.53
2022-11-20T09:21:43.979Z,59.56
2022-11-20T09:24:10.794Z,60.38
2022-11-20T09:26:37.433Z,60.83
2022-11-20T09:29:04.389Z,60.55
2022-11-20T09:31:31.522Z,59.60
2022-11-20T09:33:58.397Z,60.19
2022-11-20T09:36:24.897Z,61.04
2022-11-20T09:38:51.528Z,60.52
2022-11-20T09:41:37.400Z,60.49
2022-11-20T09:44:32.151Z,60.08
2022-11-20T09:47:17.514Z,60.32
2022-11-20T09:50:08.975Z,60.05
2022-11-20T09:52:35.702Z,60.95
2022-11-20T09:55:05.194Z,60.10
2022-11-20T09:57:42.441Z,61.58
2022-11-20T10:00:14.400Z,61.81
2022-11-20T10:03:00.770Z,60.75
2022-11-20T10:05:46.071Z,60.56
2022-11-20T10:08:31.341Z,60.06
2022-11-20T10:11:09.308Z,59.92
2022-11-20T10:13:46.790Z,58.99
2022-11-20T10:16:29.264Z,60.52
2022-11-20T10:19:17.481Z,60.22
2022-11-20T10:21:53.254Z,59.57
2022-11-20T10:24:26.218Z,58.77
2022-11-20T10:27:08.087Z,58.98
2022-11-20T10:29:37.887Z,60.16
2022-11-20T10:32:12.625Z,60.66
2022-11-20T10:35:05.930Z,62.61
2022-11-20T10:37:37.095Z,61.50
2022-11-20T10:40:27.453Z,63.32
2022-11-20T10:44:14.920Z,60.34
2022-11-20T10:47:19.981Z,63.13
2022-11-20T10:49:53.171Z,62.42
2022-11-20T10:52:44.083Z,61.04
2022-11-20T10:55:40.094Z,61.52
2022-11-20T10:58:54.955Z,61.90
2022-11-20T11:01:25.524Z,61.83
2022-11-20T11:03:54.424Z,61.59
2022-11-20T11:06:26.034Z,63.39
2022-11-20T11:08:59.570Z,61.78
2022-11-20T11:11:32.014Z,60.27
2022-11-20T11:14:13.686Z,60.49
2022-11-20T11:16:58.771Z,61.90
2022-11-20T11:19:26.496Z,62.32
2022-11-20T11:21:57.934Z,62.65
2022-11-20T11:24:41.820Z,65.30
2022-11-20T11:27:18.824Z,65.11
2022-11-20T11:29:47.071Z,65.11
2022-11-20T11:32:25.626Z,65.39
2022-11-20T11:35:04.173Z,65.88
2022-11-20T11:37:36.844Z,65.38
2022-11-20T11:43:00.658Z,65.97
2022-11-20T11:45:29.662Z,64.86
2022-11-20T11:47:59.786Z,65.92
2022-11-20T11:50:29.333Z,66.07
2022-11-20T11:53:15.728Z,67.09
2022-11-20T11:55:50.871Z,67.56
2022-11-20T11:58:29.182Z,69.35
2022-11-20T12:01:02.969Z,69.37
2022-11-20T12:03:39.344Z,68.56
2022-11-20T12:06:21.943Z,67.82
2022-11-20T12:09:17.173Z,68.67
2022-11-20T12:11:56.157Z,67.05
2022-11-20T12:14:35.275Z,68.20
2022-11-20T12:17:03.807Z,66.04
2022-11-20T12:19:34.469Z,65.45
2022-11-20T12:22:24.930Z,66.50
2022-11-20T12:24:57.420Z,63.07
2022-11-20T12:27:42.619Z,62.85
2022-11-20T12:30:12.608Z,62.98
2022-11-20T12:33:07.902Z,64.06
2022-11-20T12:35:44.285Z,65.69
2022-11-20T12:38:20.093Z,66.15
2022-11-20T12:41:55.989Z,65.24
2022-11-20T12:45:07.589Z,65.76
2022-11-20T12:48:03.618Z,66.04
2022-11-20T12:51:13.521Z,64.00
2022-11-20T12:54:11.916Z,62.26
2022-11-20T12:57:10.636Z,64.41
2022-11-20T13:00:22.223Z,63.89
2022-11-20T13:03:20.382Z,63.91
2022-11-20T13:06:02.327Z,63.24
2022-11-20T13:08:39.582Z,62.63
2022-11-20T13:11:18.557Z,63.15
2022-11-20T13:14:16.220Z,62.82
2022-11-20T13:17:09.424Z,64.58
2022-11-20T13:19:36.352Z,64.60
2022-11-20T13:22:03.071Z,65.80
2022-11-20T13:24:32.414Z,64.77
2022-11-20T13:27:05.078Z,64.21
2022-11-20T13:29:32.797Z,64.35
2022-11-20T13:32:17.669Z,64.56
2022-11-20T13:34:57.656Z,63.89
2022-11-20T13:37:36.450Z,62.94
2022-11-20T13:40:13.068Z,61.80
2022-11-20T13:43:08.348Z,61.56
2022-11-20T13:45:35.258Z,61.28
2022-11-20T13:48:06.416Z,62.42
2022-11-20T13:50:41.210Z,64.10
2022-11-20T13:53:35.939Z,61.06
2022-11-20T13:56:20.142Z,61.13
2022-11-20T13:59:14.831Z,60.72
2022-11-20T14:01:46.369Z,61.53
2022-11-20T14:04:21.407Z,62.04
2022-11-20T14:06:50.192Z,62.02
2022-11-20T14:09:33.272Z,60.82
2022-11-20T14:12:01.227Z,60.93
2022-11-20T14:14:37.510Z,59.69
2022-11-20T14:17:26.292Z,59.32
2022-11-20T14:19:54.323Z,59.30
2022-11-20T14:22:24.600Z,60.74
2022-11-20T14:25:13.268Z,60.44
2022-11-20T14:27:42.195Z,59.84
2022-11-20T14:30:16.850Z,59.41
2022-11-20T14:32:45.970Z,59.84
2022-11-20T14:35:35.496Z,59.75
2022-11-20T14:38:04.359Z,61.74
2022-11-20T14:40:34.411Z,60.91
2022-11-20T14:43:01.168Z,61.32
2022-11-20T14:45:28.609Z,61.88
2022-11-20T14:47:58.023Z,61.78
2022-11-20T14:50:27.959Z,61.78
2022-11-20T14:52:58.066Z,61.64
2022-11-20T14:55:28.449Z,62.15
2022-11-20T14:58:05.067Z,61.75
2022-11-20T15:00:33.412Z,61.93
2022-11-20T15:03:00.461Z,61.57
2022-11-20T15:05:47.672Z,61.89
2022-11-20T15:08:15.517Z,61.66
2022-11-20T15:10:50.570Z,61.32
2022-11-20T15:13:23.728Z,61.92
2022-11-20T15:15:53.364Z,63.06
2022-11-20T15:18:23.828Z,62.10
2022-11-20T15:20:51.185Z,61.39
2022-11-20T15:23:19.775Z,61.55
2022-11-20T15:25:48.306Z,62.22
2022-11-20T15:28:24.005Z,61.84
2022-11-20T15:30:51.100Z,62.12
2022-11-20T15:33:18.777Z,62.76
2022-11-20T15:35:46.537Z,62.40
2022-11-20T15:38:13.368Z,62.02
2022-11-20T15:40:40.106Z,62.54
2022-11-20T15:43:12.863Z,63.73
2022-11-20T15:45:53.717Z,62.52
2022-11-20T15:48:24.460Z,61.67
2022-11-20T15:50:57.200Z,62.11
2022-11-20T15:53:28.766Z,62.79
2022-11-20T15:55:55.862Z,63.46
2022-11-20T15:58:23.978Z,63.32
2022-11-20T16:00:50.742Z,62.93
2022-11-20T16:03:17.522Z,62.54
2022-11-20T16:05:46.053Z,62.37
2022-11-20T16:08:13.218Z,62.29
2022-11-20T16:10:47.876Z,63.42
2022-11-20T16:13:35.646Z,64.89
2022-11-20T16:16:06.550Z,67.23
2022-11-20T16:18:33.538Z,68.70
2022-11-20T16:21:00.291Z,68.41
2022-11-20T16:23:26.935Z,68.35
2022-11-20T16:25:53.571Z,67.51
2022-11-20T16:28:20.650Z,66.69
2022-11-20T16:30:47.780Z,67.21
2022-11-20T16:33:16.689Z,67.37
2022-11-20T16:35:43.828Z,66.51
2022-11-20T16:38:10.662Z,67.17
2022-11-20T16:40:37.414Z,68.21
2022-11-20T16:43:10.642Z,65.15
2022-11-20T16:45:46.435Z,68.30
2022-11-20T16:48:15.313Z,69.50
2022-11-20T16:50:52.417Z,68.23
2022-11-20T16:53:20.518Z,68.87
2022-11-20T16:55:47.986Z,69.57
2022-11-20T16:58:15.735Z,69.93
2022-11-20T17:00:46.862Z,69.81
2022-11-20T17:03:19.481Z,69.31
2022-11-20T17:05:46.220Z,68.47
2022-11-20T17:08:12.918Z,67.22
2022-11-20T17:10:39.602Z,66.13
2022-11-20T17:13:06.285Z,65.03
2022-11-20T17:15:32.940Z,64.77
2022-11-20T17:17:59.974Z,64.37
2022-11-20T17:20:26.617Z,63.83
2022-11-20T17:22:53.232Z,65.64
2022-11-20T17:25:20.702Z,64.86
2022-11-20T17:27:47.446Z,64.10
2022-11-20T17:30:14.266Z,63.67
2022-11-20T17:32:45.637Z,63.37
2022-11-20T17:35:12.528Z,63.32
2022-11-20T17:37:39.385Z,63.59
2022-11-20T17:40:06.835Z,65.71
2022-11-20T17:42:37.034Z,65.20
2022-11-20T17:45:04.729Z,64.60
2022-11-20T17:47:31.513Z,65.42
2022-11-20T17:49:58.153Z,64.42
2022-11-20T17:52:25.594Z,64.26
2022-11-20T17:54:55.827Z,64.47
2022-11-20T17:57:42.344Z,65.33
2022-11-20T18:00:10.996Z,64.88
2022-11-20T18:02:37.616Z,63.71
2022-11-20T18:05:04.732Z,63.97
2022-11-20T18:07:31.480Z,65.86
2022-11-20T18:09:58.046Z,67.45
2022-11-20T18:12:25.911Z,67.89
2022-11-20T18:14:52.755Z,69.34
2022-11-20T18:17:22.736Z,68.50
2022-11-20T18:20:14.324Z,67.69
2022-11-20T18:22:38.196Z,69.07
2022-11-20T18:25:05.333Z,69.92
2022-11-20T18:27:32.300Z,68.38
2022-11-20T18:29:59.552Z,67.74
2022-11-20T18:32:26.415Z,69.16
2022-11-20T18:34:53.304Z,68.76
2022-11-20T18:37:19.985Z,69.88
2022-11-20T18:39:46.904Z,69.13
2022-11-20T18:42:34.342Z,69.68
2022-11-20T18:45:02.386Z,68.71
2022-11-20T18:47:34.081Z,66.99
2022-11-20T18:50:01.553Z,65.29
2022-11-20T18:52:31.040Z,63.79
2022-11-20T18:54:57.678Z,63.13
2022-11-20T18:57:26.762Z,63.48
2022-11-20T18:59:55.097Z,64.03
2022-11-20T19:02:22.744Z,63.52
2022-11-20T19:04:49.559Z,63.50
2022-11-20T19:07:16.775Z,63.01
2022-11-20T19:09:48.727Z,63.32
2022-11-20T19:12:16.578Z,63.68
2022-11-20T19:14:43.287Z,63.06
2022-11-20T19:17:11.476Z,63.24
2022-11-20T19:19:38.459Z,64.37
2022-11-20T19:22:05.524Z,64.21
2022-11-20T19:24:32.243Z,64.89
2022-11-20T19:26:59.090Z,65.51
2022-11-20T19:29:27.076Z,66.45
2022-11-20T19:31:54.004Z,66.50
2022-11-20T19:34:22.155Z,66.91
2022-11-20T19:36:48.943Z,66.01
2022-11-20T19:39:15.842Z,68.14
2022-11-20T19:41:43.334Z,69.35
2022-11-20T19:44:13.975Z,70.81
2022-11-20T19:46:41.825Z,71.46
2022-11-20T19:49:11.874Z,71.66
2022-11-20T19:51:45.843Z,70.35
2022-11-20T19:54:13.411Z,70.32
2022-11-20T19:56:40.333Z,68.79
2022-11-20T19:59:06.906Z,68.20
2022-11-20T20:01:35.308Z,68.99
2022-11-20T20:04:03.678Z,69.92
2022-11-20T20:06:32.517Z,69.90
2022-11-20T20:09:10.419Z,68.14
2022-11-20T20:11:37.534Z,67.67
2022-11-20T20:14:07.528Z,68.65
2022-11-20T20:16:35.345Z,69.00
2022-11-20T20:19:03.705Z,68.26
2022-11-20T20:21:34.508Z,68.28
2022-11-20T20:24:01.458Z,67.11
2022-11-20T20:26:30.757Z,66.84
2022-11-20T20:29:00.837Z,68.18
2022-11-20T20:31:39.516Z,67.80
2022-11-20T20:34:06.632Z,66.83
2022-11-20T20:36:34.815Z,67.00
2022-11-20T20:39:03.664Z,66.21
2022-11-20T20:41:31.120Z,65.24
2022-11-20T20:44:16.661Z,65.68
2022-11-20T20:46:43.851Z,65.73
2022-11-20T20:49:10.552Z,65.47
2022-11-20T20:51:37.292Z,65.84
2022-11-20T20:54:04.745Z,66.42
2022-11-20T20:56:31.584Z,65.98
2022-11-20T20:58:58.187Z,65.52
2022-11-20T21:01:29.666Z,65.34
2022-11-20T21:03:57.453Z,64.85
2022-11-20T21:06:24.599Z,65.06
2022-11-20T21:08:51.637Z,66.10
2022-11-20T21:11:20.275Z,66.49
2022-11-20T21:13:47.865Z,66.06
2022-11-20T21:16:17.338Z,65.63
2022-11-20T21:18:44.073Z,66.03
2022-11-20T21:21:32.410Z,66.16
2022-11-20T21:23:59.399Z,66.41
2022-11-20T21:26:26.585Z,66.86
2022-11-20T21:28:53.798Z,67.20
2022-11-20T21:31:23.546Z,68.10
2022-11-20T21:33:53.467Z,68.43
2022-11-20T21:36:22.931Z,69.90
2022-11-20T21:38:52.074Z,69.62
2022-11-20T21:41:19.217Z,69.60
2022-11-20T21:43:51.543Z,69.16
2022-11-20T21:46:26.643Z,66.24
2022-11-20T21:48:53.506Z,66.31
2022-11-20T21:51:22.151Z,66.14
2022-11-20T21:53:50.031Z,65.98
2022-11-20T21:56:20.749Z,67.11
2022-11-20T21:58:49.053Z,66.63
2022-11-20T22:01:17.385Z,65.79
2022-11-20T22:03:49.301Z,65.28
2022-11-20T22:06:17.462Z,65.71
2022-11-20T22:08:45.100Z,65.58
2022-11-20T22:11:14.404Z,65.57
2022-11-20T22:14:00.477Z,65.83
2022-11-20T22:16:43.600Z,66.93
2022-11-20T22:19:10.424Z,67.34
2022-11-20T22:21:39.665Z,67.69
2022-11-20T22:24:06.437Z,66.91
2022-11-20T22:26:39.975Z,66.52
2022-11-20T22:29:08.138Z,66.15
2022-11-20T22:31:38.246Z,66.16
2022-11-20T22:34:04.933Z,67.37
2022-11-20T22:36:32.137Z,67.91
2022-11-20T22:39:02.219Z,67.63
2022-11-20T22:41:29.880Z,68.56
2022-11-20T22:43:58.735Z,69.86
2022-11-20T22:46:27.406Z,70.32
2022-11-20T22:48:59.586Z,71.80
2022-11-20T22:51:35.260Z,72.44
2022-11-20T22:54:03.600Z,73.30
2022-11-20T22:56:31.099Z,72.03
2022-11-20T22:58:58.184Z,71.49
2022-11-20T23:01:30.929Z,71.44
2022-11-20T23:04:01.868Z,70.96
2022-11-20T23:06:29.737Z,71.34
2022-11-20T23:08:56.619Z,70.81
2022-11-20T23:11:25.583Z,71.51
2022-11-20T23:13:56.045Z,71.97
2022-11-20T23:16:23.355Z,71.61
2022-11-20T23:18:55.565Z,71.80
2022-11-20T23:21:22.741Z,71.73
2022-11-20T23:23:51.917Z,70.98
2022-11-20T23:26:20.661Z,71.15
2022-11-20T23:28:47.469Z,71.89
2022-11-20T23:31:15.676Z,72.88
2022-11-20T23:33:45.169Z,71.74
2022-11-20T23:36:13.209Z,72.43
2022-11-20T23:38:40.523Z,72.07
2022-11-20T23:41:07.545Z,71.77
2022-11-20T23:43:34.635Z,71.41
2022-11-20T23:46:02.142Z,70.00
2022-11-20T23:48:32.038Z,71.55
2022-11-20T23:50:59.270Z,71.82
2022-11-20T23:53:28.262Z,71.00
2022-11-20T23:55:58.570Z,71.64
2022-11-20T23:58:30.247Z,71.76
